createdAt,value
2018-12-08T00:02:22.348Z,38.97
2018-12-08T00:07:24.754Z,42.80
2018-12-08T00:12:27.365Z,32.87
2018-12-08T00:17:33.056Z,63.37
2018-12-08T00:22:41.842Z,70.43
2018-12-08T00:27:43.814Z,51.60
2018-12-08T00:32:45.797Z,87.80
2018-12-08T00:37:49.115Z,39.27
2018-12-08T00:42:51.223Z,36.80
2018-12-08T00:47:53.428Z,39.53
2018-12-08T00:52:55.852Z,59.13
2018-12-08T00:57:58.467Z,49.77
2018-12-08T01:03:03.399Z,59.27
2018-12-08T01:08:05.935Z,53.13
2018-12-08T01:13:21.391Z,27.40
2018-12-08T01:18:23.450Z,36.93
2018-12-08T01:23:25.262Z,45.03
2018-12-08T01:28:27.255Z,28.23
2018-12-08T01:33:29.874Z,36.50
2018-12-08T01:38:32.096Z,36.10
2018-12-08T01:43:34.100Z,31.70
2018-12-08T01:48:36.281Z,49.43
2018-12-08T01:53:38.411Z,37.40
2018-12-08T01:58:47.092Z,41.60
2018-12-08T02:03:49.014Z,75.63
2018-12-08T02:08:50.934Z,58.87
2018-12-08T02:13:53.052Z,52.27
2018-12-08T02:18:58.456Z,46.33
2018-12-08T02:24:06.921Z,33.80
2018-12-08T02:29:08.798Z,37.93
2018-12-08T02:34:10.949Z,43.10
2018-12-08T02:39:21.059Z,43.60
2018-12-08T02:44:23.179Z,45.43
2018-12-08T02:49:28.591Z,50.67
2018-12-08T02:54:30.708Z,54.67
2018-12-08T02:59:33.245Z,52.10
2018-12-08T03:04:35.587Z,22.20
2018-12-08T03:09:38.093Z,21.60
2018-12-08T03:14:40.212Z,26.93
2018-12-08T03:19:43.162Z,47.97
2018-12-08T03:24:45.074Z,52.43
2018-12-08T03:29:47.001Z,27.27
2018-12-08T03:34:49.527Z,30.23
2018-12-08T03:39:51.643Z,28.93
2018-12-08T03:44:53.762Z,37.33
2018-12-08T03:49:55.904Z,53.93
2018-12-08T03:54:58.117Z,55.03
2018-12-08T04:00:00.457Z,79.20
2018-12-08T04:05:03.209Z,39.60
2018-12-08T04:10:05.577Z,57.97
2018-12-08T04:15:07.782Z,32.00
2018-12-08T04:20:09.967Z,49.50
2018-12-08T04:25:12.296Z,13.73
2018-12-08T04:30:14.889Z,16.23
2018-12-08T04:35:17.052Z,15.73
2018-12-08T04:40:19.754Z,9.70
2018-12-08T04:45:21.649Z,20.27
2018-12-08T04:50:24.195Z,29.30
2018-12-08T04:55:26.487Z,14.13
2018-12-08T05:00:28.590Z,36.60
2018-12-08T05:05:30.474Z,31.43
2018-12-08T05:10:32.270Z,32.93
2018-12-08T05:15:34.456Z,44.53
2018-12-08T05:20:36.611Z,56.60
2018-12-08T05:25:43.058Z,41.80
2018-12-08T05:30:44.976Z,53.00
2018-12-08T05:35:47.132Z,33.77
2018-12-08T05:40:49.457Z,60.03
2018-12-08T05:45:51.217Z,36.77
2018-12-08T05:50:53.690Z,48.27
2018-12-08T05:55:56.171Z,57.67
2018-12-08T06:00:58.070Z,66.37
2018-12-08T06:06:00.262Z,39.47
2018-12-08T06:11:02.267Z,69.70
2018-12-08T06:16:04.888Z,83.17
2018-12-08T06:21:07.305Z,71.83
2018-12-08T06:26:10.545Z,68.93
2018-12-08T06:31:12.762Z,68.90
2018-12-08T06:36:15.365Z,64.77
2018-12-08T06:41:23.217Z,57.37
2018-12-08T06:46:26.139Z,48.27
2018-12-08T06:51:28.554Z,75.07
2018-12-08T06:56:30.969Z,83.20
2018-12-08T07:01:32.780Z,62.37
2018-12-08T07:06:35.390Z,41.20
2018-12-08T07:11:37.401Z,58.17
2018-12-08T07:16:52.165Z,54.33
2018-12-08T07:21:54.492Z,50.87
2018-12-08T07:27:00.389Z,55.40
2018-12-08T07:32:03.374Z,59.60
2018-12-08T07:37:05.563Z,55.97
2018-12-08T07:42:08.977Z,57.00
2018-12-08T07:47:11.072Z,49.53
2018-12-08T07:52:14.395Z,46.37
2018-12-08T07:57:23.956Z,51.33
2018-12-08T08:02:28.190Z,58.07
2018-12-08T08:07:30.607Z,46.90
2018-12-08T08:12:32.806Z,43.40
2018-12-08T08:17:42.382Z,53.27
2018-12-08T08:22:44.698Z,43.73
2018-12-08T08:27:50.547Z,30.87
2018-12-08T08:32:53.528Z,50.73
2018-12-08T08:37:55.473Z,50.03
2018-12-08T08:53:28.940Z,63.43
2018-12-08T08:58:31.469Z,78.40
2018-12-08T09:03:33.611Z,75.37
2018-12-08T09:08:38.835Z,70.13
2018-12-08T09:13:42.018Z,55.40
2018-12-08T09:18:49.504Z,63.10
2018-12-08T09:23:52.411Z,84.67
2018-12-08T09:29:13.176Z,49.67
2018-12-08T09:34:15.744Z,40.83
2018-12-08T09:39:18.159Z,44.80
2018-12-08T09:44:31.114Z,50.60
2018-12-08T09:49:33.635Z,33.80
2018-12-08T09:54:35.514Z,21.07
2018-12-08T09:59:37.643Z,38.43
2018-12-08T10:05:08.014Z,55.57
2018-12-08T10:10:09.825Z,36.17
2018-12-08T10:15:11.732Z,38.27
2018-12-08T10:20:15.311Z,44.43
2018-12-08T10:25:17.733Z,43.53
2018-12-08T10:30:19.571Z,60.23
2018-12-08T10:35:21.715Z,69.60
2018-12-08T10:40:23.793Z,63.77
2018-12-08T10:45:25.813Z,51.83
2018-12-08T10:50:27.928Z,72.70
2018-12-08T10:55:31.141Z,60.53
2018-12-08T11:06:04.148Z,52.73
2018-12-08T11:11:31.666Z,83.97
2018-12-08T11:16:52.251Z,69.73
2018-12-08T11:21:54.877Z,66.93
2018-12-08T11:26:56.800Z,82.10
2018-12-08T11:31:58.800Z,76.80
2018-12-08T11:37:14.577Z,91.13
2018-12-08T11:42:17.077Z,80.17
2018-12-08T11:47:20.685Z,75.00
2018-12-08T11:52:22.570Z,61.70
2018-12-08T11:57:24.478Z,59.97
2018-12-08T12:02:26.591Z,61.03
2018-12-08T12:07:30.485Z,71.43
2018-12-08T12:12:32.566Z,73.63
2018-12-08T12:17:39.658Z,75.73
2018-12-08T12:22:42.957Z,82.00
2018-12-08T12:27:45.556Z,43.83
2018-12-08T12:32:47.469Z,73.47
2018-12-08T12:37:50.736Z,50.30
2018-12-08T12:42:52.565Z,31.17
2018-12-08T12:47:55.125Z,59.00
2018-12-08T12:52:57.146Z,59.40
2018-12-08T12:57:59.508Z,80.53
2018-12-08T13:03:08.281Z,55.40
2018-12-08T13:08:10.629Z,78.93
2018-12-08T13:13:12.636Z,54.73
2018-12-08T13:18:15.337Z,49.93
2018-12-08T13:23:18.216Z,52.83
2018-12-08T13:33:53.941Z,39.47
2018-12-08T13:38:58.542Z,54.97
2018-12-08T13:44:04.267Z,72.10
2018-12-08T13:49:09.955Z,42.70
2018-12-08T13:54:17.568Z,53.13
2018-12-08T13:59:20.050Z,37.23
2018-12-08T14:04:22.216Z,39.90
2018-12-08T14:09:24.898Z,29.33
2018-12-08T14:14:27.127Z,37.80
2018-12-08T14:19:29.730Z,37.47
2018-12-08T14:24:31.854Z,29.00
2018-12-08T14:29:34.163Z,44.07
2018-12-08T14:34:36.742Z,57.60
2018-12-08T14:39:39.229Z,70.53
2018-12-08T14:44:43.292Z,57.97
2018-12-08T14:49:46.060Z,61.50
2018-12-08T14:54:48.866Z,68.20
2018-12-08T14:59:52.127Z,49.43
2018-12-08T15:04:55.489Z,53.17
2018-12-08T15:09:59.344Z,65.63
2018-12-08T15:15:06.115Z,64.20
2018-12-08T15:20:10.505Z,54.57
2018-12-08T15:25:14.767Z,76.23
2018-12-08T15:30:26.303Z,50.00
2018-12-08T15:35:30.701Z,93.37
2018-12-08T15:40:41.741Z,56.53
2018-12-08T15:45:45.066Z,71.80
2018-12-08T15:50:48.485Z,65.93
2018-12-08T15:55:54.407Z,63.80
2018-12-08T16:00:58.719Z,35.20
2018-12-08T16:06:02.913Z,61.47
2018-12-08T16:11:10.799Z,45.83
2018-12-08T16:16:14.768Z,51.47
2018-12-08T16:21:17.588Z,49.17
2018-12-08T16:26:21.183Z,66.50
2018-12-08T16:31:27.016Z,93.20
2018-12-08T16:36:35.758Z,68.37
2018-12-08T16:41:38.686Z,65.57
2018-12-08T16:46:41.464Z,105.93
2018-12-08T16:51:44.505Z,112.97
2018-12-08T16:56:48.166Z,98.60
2018-12-08T17:01:53.362Z,57.40
2018-12-08T17:06:57.073Z,43.50
2018-12-08T17:12:00.869Z,54.07
2018-12-08T17:17:03.738Z,60.47
2018-12-08T17:22:08.286Z,50.20
2018-12-08T17:27:11.554Z,73.37
2018-12-08T17:32:15.055Z,69.10
2018-12-08T17:37:19.403Z,99.40
2018-12-08T17:42:23.073Z,89.53
2018-12-08T17:47:26.785Z,66.57
2018-12-08T17:52:30.758Z,28.23
2018-12-08T17:57:34.132Z,20.97
2018-12-08T18:02:39.757Z,0.50
2018-12-08T18:07:44.066Z,0.50
2018-12-08T18:12:49.403Z,61.93
2018-12-08T18:17:53.040Z,103.60
2018-12-08T18:22:56.666Z,138.10
2018-12-08T18:28:00.122Z,117.50
2018-12-08T18:33:03.564Z,97.30
2018-12-08T18:38:09.193Z,78.80
2018-12-08T18:43:14.218Z,78.80
2018-12-08T18:48:17.885Z,56.23
2018-12-08T18:53:21.582Z,65.50
2018-12-08T18:58:25.943Z,56.00
2018-12-08T19:03:31.113Z,74.60
2018-12-08T19:08:34.351Z,77.97
2018-12-08T19:13:42.092Z,77.80
2018-12-08T19:18:46.107Z,85.40
2018-12-08T19:23:48.838Z,89.10
2018-12-08T19:28:55.086Z,84.90
2018-12-08T19:33:59.869Z,76.70
2018-12-08T19:39:05.945Z,85.80
2018-12-08T19:44:09.059Z,83.60
2018-12-08T19:49:11.833Z,93.37
2018-12-08T19:54:14.136Z,97.30
2018-12-08T19:59:16.406Z,80.43
2018-12-08T20:04:18.943Z,71.30
2018-12-08T20:09:22.234Z,61.63
2018-12-08T20:14:25.895Z,53.60
2018-12-08T20:19:29.255Z,65.47
2018-12-08T20:30:03.253Z,71.97
2018-12-08T20:35:06.237Z,79.23
2018-12-08T20:40:09.883Z,115.00
2018-12-08T20:45:12.549Z,63.70
2018-12-08T20:50:14.781Z,109.00
2018-12-08T20:55:18.559Z,93.27
2018-12-08T21:00:22.948Z,84.37
2018-12-08T21:05:27.008Z,101.13
2018-12-08T21:10:30.454Z,85.73
2018-12-08T21:15:33.401Z,98.30
2018-12-08T21:20:42.005Z,57.77
2018-12-08T21:25:44.680Z,86.00
2018-12-08T21:30:46.922Z,89.63
2018-12-08T21:35:48.831Z,96.37
2018-12-08T21:40:51.671Z,89.73
2018-12-08T21:45:54.589Z,68.90
2018-12-08T21:50:56.547Z,91.37
2018-12-08T21:55:59.908Z,96.73
2018-12-08T22:01:09.843Z,108.97
2018-12-08T22:06:13.572Z,90.90
2018-12-08T22:11:19.959Z,91.40
2018-12-08T22:16:22.421Z,85.83
2018-12-08T22:21:25.116Z,83.37
2018-12-08T22:26:27.059Z,95.73
2018-12-08T22:31:28.821Z,81.83
2018-12-08T22:36:30.645Z,91.73
2018-12-08T22:41:33.831Z,82.67
2018-12-08T22:46:35.680Z,59.03
2018-12-08T22:51:37.798Z,57.73
2018-12-08T22:56:39.662Z,77.63
2018-12-08T23:01:41.542Z,77.77
2018-12-08T23:06:52.833Z,59.63
2018-12-08T23:12:01.057Z,80.27
2018-12-08T23:17:04.990Z,78.23
2018-12-08T23:22:09.136Z,69.53
2018-12-08T23:27:18.172Z,85.73
2018-12-08T23:37:28.088Z,38.77
2018-12-08T23:42:30.090Z,54.83
2018-12-08T23:47:32.162Z,57.50
2018-12-08T23:52:33.931Z,44.73
2018-12-08T23:57:36.051Z,48.33
